createdAt,value
2018-11-03T00:02:24.535Z,7.50
2018-11-03T00:07:27.710Z,7.50
2018-11-03T00:12:30.748Z,7.50
2018-11-03T00:17:33.846Z,7.60
2018-11-03T00:22:36.952Z,7.60
2018-11-03T00:27:39.984Z,7.50
2018-11-03T00:32:43.079Z,7.50
2018-11-03T00:37:46.130Z,7.40
2018-11-03T00:42:49.249Z,7.40
2018-11-03T00:47:52.250Z,7.30
2018-11-03T00:52:55.310Z,7.30
2018-11-03T00:57:58.337Z,7.30
2018-11-03T01:03:01.419Z,7.20
2018-11-03T01:08:04.991Z,7.20
2018-11-03T01:13:08.182Z,7.20
2018-11-03T01:18:11.220Z,7.20
2018-11-03T01:23:14.273Z,7.20
2018-11-03T01:28:17.287Z,7.20
2018-11-03T01:33:20.323Z,7.20
2018-11-03T01:38:23.365Z,7.20
2018-11-03T01:43:26.426Z,7.20
2018-11-03T01:48:29.557Z,7.20
2018-11-03T01:53:32.601Z,7.10
2018-11-03T01:58:35.729Z,7.10
2018-11-03T02:03:38.733Z,7.10
2018-11-03T02:08:41.897Z,7.10
2018-11-03T02:13:44.979Z,7.10
2018-11-03T02:18:48.016Z,7.00
2018-11-03T02:23:51.138Z,7.00
2018-11-03T02:28:54.216Z,7.10
2018-11-03T02:33:57.243Z,7.10
2018-11-03T02:39:00.280Z,7.10
2018-11-03T02:44:03.312Z,7.10
2018-11-03T02:49:06.517Z,7.10
2018-11-03T02:54:10.566Z,7.10
2018-11-03T02:59:13.576Z,7.20
2018-11-03T03:04:16.660Z,7.20
2018-11-03T03:09:19.724Z,7.20
2018-11-03T03:14:22.780Z,7.20
2018-11-03T03:19:25.818Z,7.20
2018-11-03T03:24:28.921Z,7.30
2018-11-03T03:29:31.992Z,7.30
2018-11-03T03:34:35.316Z,7.30
2018-11-03T03:39:38.370Z,7.30
2018-11-03T03:44:42.052Z,7.30
2018-11-03T03:49:45.184Z,7.30
2018-11-03T03:54:48.252Z,7.30
2018-11-03T03:59:51.320Z,7.30
2018-11-03T04:04:54.420Z,7.30
2018-11-03T04:09:57.449Z,7.30
2018-11-03T04:15:00.453Z,7.40
2018-11-03T04:20:03.487Z,7.40
2018-11-03T04:25:06.520Z,7.40
2018-11-03T04:30:11.707Z,7.50
2018-11-03T04:35:14.756Z,7.40
2018-11-03T04:40:17.813Z,7.40
2018-11-03T04:45:21.002Z,7.40
2018-11-03T04:50:24.031Z,7.40
2018-11-03T04:55:27.164Z,7.40
2018-11-03T05:00:30.205Z,7.40
2018-11-03T05:05:33.257Z,7.40
2018-11-03T05:10:36.310Z,7.40
2018-11-03T05:15:39.430Z,7.40
2018-11-03T05:20:42.555Z,7.40
2018-11-03T05:25:45.569Z,7.40
2018-11-03T05:30:48.689Z,7.40
2018-11-03T05:35:51.896Z,7.40
2018-11-03T05:40:54.916Z,7.50
2018-11-03T05:45:57.964Z,7.50
2018-11-03T05:51:00.964Z,7.50
2018-11-03T05:56:04.029Z,7.50
2018-11-03T06:01:07.060Z,7.50
2018-11-03T06:06:10.074Z,7.50
2018-11-03T06:11:13.114Z,7.50
2018-11-03T06:16:16.166Z,7.50
2018-11-03T06:21:19.231Z,7.60
2018-11-03T06:26:22.297Z,7.60
2018-11-03T06:31:25.415Z,7.60
2018-11-03T06:36:28.480Z,7.70
2018-11-03T06:41:31.530Z,7.70
2018-11-03T06:46:34.655Z,7.70
2018-11-03T06:51:37.753Z,7.70
2018-11-03T06:56:40.912Z,7.80
2018-11-03T07:01:43.934Z,7.80
2018-11-03T07:06:47.075Z,8.00
2018-11-03T07:11:50.128Z,8.00
2018-11-03T07:16:53.191Z,8.00
2018-11-03T07:21:56.244Z,8.10
2018-11-03T07:26:59.301Z,8.20
2018-11-03T07:32:02.476Z,8.20
2018-11-03T07:37:06.305Z,8.30
2018-11-03T07:42:09.500Z,8.30
2018-11-03T07:47:12.593Z,8.40
2018-11-03T07:52:15.877Z,8.60
2018-11-03T07:57:18.884Z,8.70
2018-11-03T08:02:21.985Z,8.80
2018-11-03T08:07:25.030Z,8.90
2018-11-03T08:12:28.049Z,9.00
2018-11-03T08:17:31.211Z,8.90
2018-11-03T08:22:34.270Z,9.10
2018-11-03T08:27:37.307Z,9.10
2018-11-03T08:32:40.372Z,9.20
2018-11-03T08:37:44.439Z,9.20
2018-11-03T08:42:47.513Z,9.20
2018-11-03T08:47:50.548Z,9.50
2018-11-03T08:52:53.684Z,9.50
2018-11-03T08:57:56.736Z,9.60
2018-11-03T09:02:59.790Z,9.70
2018-11-03T09:08:02.853Z,9.70
2018-11-03T09:13:05.961Z,9.90
2018-11-03T09:18:09.090Z,9.90
2018-11-03T09:23:12.294Z,10.10
2018-11-03T09:28:15.371Z,10.00
2018-11-03T09:33:18.405Z,10.20
2018-11-03T09:38:21.470Z,10.10
2018-11-03T09:43:24.721Z,10.30
2018-11-03T09:48:27.740Z,10.50
2018-11-03T09:53:30.832Z,10.50
2018-11-03T09:58:34.151Z,10.60
2018-11-03T10:03:37.381Z,10.60
2018-11-03T10:08:40.696Z,10.60
2018-11-03T10:13:44.186Z,10.60
2018-11-03T10:18:47.328Z,10.50
2018-11-03T10:23:50.414Z,10.50
2018-11-03T10:28:53.578Z,10.50
2018-11-03T10:33:56.838Z,10.60
2018-11-03T10:38:59.904Z,10.80
2018-11-03T10:44:02.969Z,11.00
2018-11-03T10:49:08.518Z,11.10
2018-11-03T10:54:11.691Z,11.20
2018-11-03T10:59:14.784Z,11.30
2018-11-03T11:04:23.279Z,11.20
2018-11-03T11:10:34.619Z,11.20
2018-11-03T11:15:38.194Z,11.30
2018-11-03T11:20:41.454Z,11.40
2018-11-03T11:25:44.467Z,11.40
2018-11-03T11:30:47.684Z,11.50
2018-11-03T11:35:52.158Z,11.60
2018-11-03T11:40:55.220Z,11.60
2018-11-03T11:45:58.780Z,11.70
2018-11-03T11:51:02.420Z,11.70
2018-11-03T11:56:05.522Z,11.70
2018-11-03T12:01:08.597Z,11.70
2018-11-03T12:06:12.115Z,11.70
2018-11-03T12:11:15.236Z,11.70
2018-11-03T12:16:18.326Z,11.80
2018-11-03T12:21:21.413Z,11.90
2018-11-03T12:26:24.471Z,12.00
2018-11-03T12:31:27.790Z,12.00
2018-11-03T12:36:30.911Z,11.80
2018-11-03T12:41:34.147Z,11.90
2018-11-03T12:46:37.080Z,11.90
2018-11-03T12:51:40.159Z,11.80
2018-11-03T12:56:43.637Z,11.80
2018-11-03T13:01:46.676Z,11.80
2018-11-03T13:06:49.700Z,11.80
2018-11-03T13:11:52.777Z,11.70
2018-11-03T13:16:55.801Z,11.70
2018-11-03T13:21:58.822Z,11.60
2018-11-03T13:27:01.875Z,11.50
2018-11-03T13:32:05.734Z,11.50
2018-11-03T13:37:08.771Z,11.40
2018-11-03T13:42:11.809Z,11.50
2018-11-03T13:47:14.937Z,11.60
2018-11-03T13:52:17.867Z,11.60
2018-11-03T13:57:20.977Z,11.50
2018-11-03T14:02:24.004Z,11.40
2018-11-03T14:07:27.156Z,11.30
2018-11-03T14:12:30.349Z,11.30
2018-11-03T14:17:33.415Z,11.20
2018-11-03T14:22:36.531Z,11.20
2018-11-03T14:27:39.930Z,11.10
2018-11-03T14:32:43.651Z,11.00
2018-11-03T14:37:46.819Z,11.00
2018-11-03T14:42:49.859Z,11.10
2018-11-03T14:47:52.907Z,11.00
2018-11-03T14:52:55.982Z,10.90
2018-11-03T14:57:59.089Z,10.80
2018-11-03T15:03:02.579Z,10.70
2018-11-03T15:08:06.391Z,10.60
2018-11-03T15:13:10.578Z,10.50
2018-11-03T15:18:13.605Z,10.40
2018-11-03T15:23:16.637Z,10.20
2018-11-03T15:28:19.690Z,10.10
2018-11-03T15:33:22.729Z,10.10
2018-11-03T15:38:25.743Z,9.90
2018-11-03T15:43:28.836Z,9.80
2018-11-03T15:48:31.859Z,9.70
2018-11-03T15:53:35.175Z,9.50
2018-11-03T15:58:38.319Z,9.30
2018-11-03T16:03:41.376Z,9.10
2018-11-03T16:08:45.017Z,9.00
2018-11-03T16:13:54.789Z,8.80
2018-11-03T16:18:57.870Z,8.60
2018-11-03T16:24:00.964Z,8.40
2018-11-03T16:29:04.014Z,8.20
2018-11-03T16:34:07.448Z,8.00
2018-11-03T16:39:11.889Z,7.90
2018-11-03T16:44:14.972Z,7.80
2018-11-03T16:49:19.513Z,7.70
2018-11-03T16:54:25.521Z,7.60
2018-11-03T16:59:28.887Z,7.60
2018-11-03T17:04:31.949Z,7.60
2018-11-03T17:09:36.078Z,7.60
2018-11-03T17:14:39.340Z,7.60
2018-11-03T17:19:42.375Z,7.50
2018-11-03T17:24:45.388Z,7.40
2018-11-03T17:29:48.753Z,7.30
2018-11-03T17:34:51.751Z,7.20
2018-11-03T17:39:54.761Z,7.10
2018-11-03T17:44:57.824Z,7.00
2018-11-03T17:50:00.819Z,6.90
2018-11-03T17:55:03.984Z,6.80
2018-11-03T18:00:09.805Z,6.70
2018-11-03T18:05:13.059Z,6.70
2018-11-03T18:10:16.156Z,6.60
2018-11-03T18:15:19.222Z,6.50
2018-11-03T18:20:22.292Z,6.40
2018-11-03T18:25:25.399Z,6.30
2018-11-03T18:30:28.468Z,6.30
2018-11-03T18:35:31.638Z,6.30
2018-11-03T18:40:34.968Z,6.20
2018-11-03T18:45:38.027Z,6.10
2018-11-03T18:50:41.112Z,6.10
2018-11-03T18:55:44.252Z,6.00
2018-11-03T19:00:47.398Z,6.00
2018-11-03T19:05:50.580Z,6.00
2018-11-03T19:10:53.617Z,6.00
2018-11-03T19:15:56.752Z,6.00
2018-11-03T19:20:59.810Z,6.00
2018-11-03T19:26:02.863Z,6.00
2018-11-03T19:31:05.916Z,6.00
2018-11-03T19:36:08.982Z,6.00
2018-11-03T19:41:12.017Z,6.00
2018-11-03T19:46:15.028Z,6.00
2018-11-03T19:51:18.057Z,6.00
2018-11-03T19:56:21.120Z,6.00
2018-11-03T20:01:24.380Z,6.00
2018-11-03T20:06:29.485Z,5.90
2018-11-03T20:11:32.676Z,5.90
2018-11-03T20:16:35.749Z,5.80
2018-11-03T20:21:38.741Z,5.80
2018-11-03T20:26:41.835Z,5.80
2018-11-03T20:31:45.122Z,5.80
2018-11-03T20:36:48.424Z,5.80
2018-11-03T20:41:51.534Z,5.80
2018-11-03T20:46:54.563Z,5.70
2018-11-03T20:51:57.714Z,5.70
2018-11-03T20:57:00.748Z,5.70
2018-11-03T21:02:03.910Z,5.70
2018-11-03T21:07:06.910Z,5.70
2018-11-03T21:12:09.954Z,5.70
2018-11-03T21:17:12.987Z,5.70
2018-11-03T21:22:16.009Z,5.70
2018-11-03T21:27:19.045Z,5.80
2018-11-03T21:32:22.865Z,5.80
2018-11-03T21:37:25.717Z,5.70
2018-11-03T21:42:31.600Z,5.60
2018-11-03T21:47:35.726Z,5.50
2018-11-03T21:52:39.200Z,5.50
2018-11-03T21:57:42.217Z,5.40
2018-11-03T22:02:45.267Z,5.40
2018-11-03T22:07:48.312Z,5.40
2018-11-03T22:12:51.377Z,5.30
2018-11-03T22:17:54.386Z,5.30
2018-11-03T22:22:57.532Z,5.30
2018-11-03T22:28:00.755Z,5.30
2018-11-03T22:33:04.355Z,5.30
2018-11-03T22:38:07.519Z,5.40
2018-11-03T22:43:10.596Z,5.40
2018-11-03T22:48:13.608Z,5.50
2018-11-03T22:53:16.702Z,5.40
2018-11-03T22:58:19.768Z,5.50
2018-11-03T23:03:22.932Z,5.50
2018-11-03T23:08:26.333Z,5.50
2018-11-03T23:13:30.282Z,5.50
2018-11-03T23:18:33.357Z,5.50
2018-11-03T23:23:36.457Z,5.60
2018-11-03T23:28:39.508Z,5.50
2018-11-03T23:33:42.556Z,5.60
2018-11-03T23:38:45.667Z,5.60
2018-11-03T23:43:48.674Z,5.60
2018-11-03T23:48:51.730Z,5.70
2018-11-03T23:53:54.724Z,5.80
2018-11-03T23:58:57.768Z,5.80
